Time;durP1;ratioP1;P1;durP2;ratioP2;P2;SDS_P1;SDS_P2;PMS_P1;PMS_P2;Temp;Humidity;BMP_temperature;BMP_pressure;BME280_temperature;BME280_humidity;BME280_pressure;Samples;Min_cycle;Max_cycle;Signal;HPM_P1;HPM_P2
2023/08/26 00:06:36;;;;;;;713.38;649.60;;;15.60;82.50;;;;;;6248239;22;20035;-93
2023/08/26 00:09:03;;;;;;;715.13;650.67;;;15.60;82.50;;;;;;6183839;22;20351;-92
2023/08/26 00:11:44;;;;;;;774.63;704.17;;;15.60;82.50;;;;;;6199997;22;20023;-93
2023/08/26 00:14:09;;;;;;;751.93;683.23;;;15.60;82.40;;;;;;6238917;22;20018;-93
2023/08/26 00:16:35;;;;;;;756.92;688.10;;;15.60;82.30;;;;;;6199859;22;20065;-94
2023/08/26 00:19:01;;;;;;;729.30;661.97;;;15.60;82.30;;;;;;6225274;22;20326;-92
2023/08/26 00:44:13;;;;;;;632.28;578.83;;;15.30;81.90;;;;;;6291155;22;20062;-93
2023/08/26 00:46:39;;;;;;;631.47;576.95;;;15.20;81.90;;;;;;6231360;22;20012;-92
2023/08/26 00:49:05;;;;;;;688.40;628.70;;;15.20;81.80;;;;;;6229002;22;20427;-92
2023/08/26 00:55:30;;;;;;;621.08;569.15;;;15.10;81.70;;;;;;6311264;22;20007;-92
2023/08/26 01:05:47;;;;;;;632.08;580.25;;;15.00;81.50;;;;;;6310917;22;20019;-93
2023/08/26 01:27:27;;;;;;;683.38;622.35;;;14.70;81.50;;;;;;6308977;22;20011;-93
2023/08/26 01:29:53;;;;;;;620.72;567.58;;;14.70;81.50;;;;;;6245355;22;20019;-93
2023/08/26 01:32:43;;;;;;;642.13;586.78;;;14.60;81.40;;;;;;6256803;22;20104;-92
2023/08/26 01:38:57;;;;;;;615.45;565.38;;;14.60;81.50;;;;;;6309118;22;20014;-93
2023/08/26 01:42:02;;;;;;;649.72;592.75;;;14.50;81.50;;;;;;6231446;22;20080;-92
2023/08/26 02:01:08;;;;;;;547.80;506.05;;;14.30;81.70;;;;;;6285505;22;20093;-92
2023/08/26 02:03:34;;;;;;;566.58;520.83;;;14.20;81.80;;;;;;6231965;22;20026;-92
2023/08/26 02:25:17;;;;;;;559.20;515.40;;;13.90;82.20;;;;;;6306732;22;20033;-92
2023/08/26 02:27:51;;;;;;;573.80;528.90;;;13.90;82.20;;;;;;6228555;22;20511;-92
2023/08/26 02:30:18;;;;;;;557.65;513.97;;;13.80;82.00;;;;;;6230884;22;20015;-92
2023/08/26 02:32:44;;;;;;;572.63;526.95;;;13.70;82.20;;;;;;6227358;22;20476;-92
2023/08/26 02:43:02;;;;;;;545.20;503.85;;;13.50;82.50;;;;;;6310192;22;20068;-92
2023/08/26 02:45:28;;;;;;;567.50;523.03;;;13.50;82.60;;;;;;6285742;22;20026;-93
2023/08/26 02:47:54;;;;;;;625.13;571.03;;;13.50;82.60;;;;;;6230617;22;20072;-92
2023/08/26 02:50:33;;;;;;;582.35;537.85;;;13.40;82.70;;;;;;6205823;22;20022;-92
2023/08/26 02:52:59;;;;;;;603.92;556.45;;;13.40;82.70;;;;;;6255705;22;20012;-92
2023/08/26 02:55:25;;;;;;;633.33;580.70;;;13.30;82.70;;;;;;6230786;22;20378;-92
2023/08/26 03:05:37;;;;;;;510.50;471.90;;;13.30;82.80;;;;;;6216450;22;20047;-92
2023/08/26 03:08:03;;;;;;;576.00;529.03;;;13.20;82.70;;;;;;6164304;23;20020;-93
2023/08/26 03:10:29;;;;;;;601.42;553.20;;;13.20;82.70;;;;;;6163789;23;20365;-92
2023/08/26 03:17:08;;;;;;;491.83;453.85;;;13.20;82.60;;;;;;6206932;23;20446;-92
2023/08/26 03:31:36;;;;;;;465.67;430.80;;;13.10;82.40;;;;;;6307959;22;20042;-91
2023/08/26 03:34:08;;;;;;;514.08;475.98;;;13.10;82.40;;;;;;6259202;22;20029;-92
2023/08/26 03:36:33;;;;;;;564.45;519.22;;;13.00;82.30;;;;;;6255742;22;20090;-93
2023/08/26 03:43:13;;;;;;;423.83;392.17;;;13.00;82.30;;;;;;6308094;22;20109;-92
2023/08/26 03:45:39;;;;;;;491.98;454.63;;;13.00;82.30;;;;;;6225220;22;20024;-92
2023/08/26 03:48:08;;;;;;;573.47;529.60;;;12.90;82.30;;;;;;6247788;22;20020;-92
2023/08/26 03:50:34;;;;;;;586.40;540.78;;;12.90;82.40;;;;;;6200405;22;20018;-92
2023/08/26 03:53:32;;;;;;;619.42;568.35;;;12.90;82.30;;;;;;6195617;22;20087;-92
2023/08/26 03:55:59;;;;;;;517.13;478.05;;;12.90;82.50;;;;;;6277513;22;20316;-92
2023/08/26 03:58:26;;;;;;;544.83;501.50;;;12.90;82.50;;;;;;6209488;22;20027;-92
2023/08/26 04:12:05;;;;;;;389.25;360.45;;;12.90;82.70;;;;;;6250188;22;20020;-92
2023/08/26 04:14:31;;;;;;;483.00;446.20;;;12.90;82.70;;;;;;6198987;22;20011;-92
2023/08/26 04:17:53;;;;;;;520.75;481.35;;;12.90;82.70;;;;;;6224246;22;20024;-92
2023/08/26 04:24:00;;;;;;;470.83;435.73;;;12.90;82.70;;;;;;6276847;22;20050;-92
2023/08/26 04:27:03;;;;;;;547.45;506.73;;;13.00;82.90;;;;;;6251961;22;20011;-92
2023/08/26 04:29:35;;;;;;;505.00;467.83;;;13.00;82.90;;;;;;6217707;22;20137;-92
2023/08/26 04:32:00;;;;;;;524.63;484.38;;;13.00;82.80;;;;;;6177734;22;20020;-93
2023/08/26 04:34:26;;;;;;;559.50;516.72;;;13.00;82.80;;;;;;6201492;22;20072;-92
2023/08/26 04:37:14;;;;;;;540.88;499.58;;;13.00;82.70;;;;;;6225150;22;20015;-92
2023/08/26 04:40:03;;;;;;;561.08;517.97;;;13.00;82.70;;;;;;6251965;22;20448;-92
2023/08/26 04:42:29;;;;;;;522.35;482.73;;;13.00;82.70;;;;;;6224415;22;20012;-92
2023/08/26 04:45:38;;;;;;;582.65;534.60;;;13.00;82.70;;;;;;6250478;22;20352;-92
2023/08/26 04:48:07;;;;;;;504.13;466.50;;;13.10;82.80;;;;;;6254956;22;20020;-93
2023/08/26 04:50:34;;;;;;;524.75;485.80;;;13.10;82.90;;;;;;6282295;22;20086;-93
2023/08/26 04:53:10;;;;;;;573.92;528.22;;;13.10;82.90;;;;;;6206684;22;20424;-92
2023/08/26 04:55:54;;;;;;;534.40;493.65;;;13.10;82.90;;;;;;6206400;22;20012;-93
2023/08/26 04:58:21;;;;;;;539.50;498.95;;;13.10;82.90;;;;;;6225234;22;20019;-92
2023/08/26 05:00:47;;;;;;;600.65;551.38;;;13.20;83.00;;;;;;6231685;22;20038;-92
2023/08/26 05:04:04;;;;;;;541.75;501.05;;;13.20;82.90;;;;;;6259554;22;20412;-93
2023/08/26 05:07:07;;;;;;;517.05;478.40;;;13.30;83.00;;;;;;6256705;22;20045;-93
2023/08/26 05:09:32;;;;;;;461.88;428.02;;;13.30;83.10;;;;;;6256034;22;20023;-93
2023/08/26 05:11:58;;;;;;;569.47;523.70;;;13.30;83.00;;;;;;6255923;22;20015;-92
2023/08/26 05:18:16;;;;;;;465.92;432.23;;;13.30;83.00;;;;;;6307790;22;20065;-93
2023/08/26 05:28:32;;;;;;;507.95;470.63;;;13.30;82.90;;;;;;6306888;22;20034;-92
2023/08/26 05:34:31;;;;;;;438.83;406.30;;;13.30;83.00;;;;;;6281229;22;20020;-92
2023/08/26 05:40:47;;;;;;;462.27;426.25;;;13.40;83.10;;;;;;6309001;22;20006;-92
2023/08/26 05:43:13;;;;;;;538.08;495.60;;;13.40;83.10;;;;;;6229552;22;20031;-92
2023/08/26 05:45:39;;;;;;;586.40;541.05;;;13.40;83.10;;;;;;6205710;22;20015;-92
2023/08/26 06:06:44;;;;;;;;;;;13.50;83.40;;;;;;6277979;22;20094;-93
2023/08/26 06:09:09;;;;;;;434.50;402.10;;;13.50;83.90;;;;;;6233983;22;19965;-93
2023/08/26 06:12:03;;;;;;;529.72;490.17;;;13.60;83.70;;;;;;6255803;22;20025;-92
2023/08/26 06:22:18;;;;;;;448.95;415.42;;;13.80;83.60;;;;;;6307897;22;20014;-93
2023/08/26 06:24:43;;;;;;;513.83;474.20;;;13.90;83.60;;;;;;6229911;22;20015;-93
2023/08/26 06:27:10;;;;;;;540.38;498.48;;;13.90;83.50;;;;;;6256230;22;20019;-92
2023/08/26 06:33:17;;;;;;;550.20;509.35;;;14.00;83.30;;;;;;6281392;22;20026;-92
2023/08/26 06:35:47;;;;;;;577.83;530.35;;;14.00;83.30;;;;;;6281285;22;20015;-92
2023/08/26 06:38:13;;;;;;;554.60;511.83;;;14.00;83.00;;;;;;6254386;22;20026;-95
2023/08/26 06:40:39;;;;;;;572.65;526.20;;;14.10;82.90;;;;;;6251900;22;20098;-93
2023/08/26 06:43:06;;;;;;;619.17;567.28;;;14.10;82.90;;;;;;6232665;22;20054;-93
2023/08/26 06:45:32;;;;;;;637.00;582.05;;;14.10;82.70;;;;;;6227178;22;20046;-93
2023/08/26 06:47:58;;;;;;;571.67;524.95;;;14.10;82.60;;;;;;6212591;22;20023;-93
2023/08/26 06:50:24;;;;;;;540.05;497.15;;;14.10;82.60;;;;;;6202733;22;20030;-93
2023/08/26 06:52:50;;;;;;;530.92;488.38;;;14.10;82.30;;;;;;6235717;22;20042;-93
2023/08/26 06:55:17;;;;;;;589.88;542.95;;;14.10;82.10;;;;;;6278111;22;20090;-93
2023/08/26 06:57:43;;;;;;;551.08;507.73;;;14.20;81.90;;;;;;6216738;22;20026;-93
2023/08/26 07:00:09;;;;;;;633.92;578.85;;;14.20;82.00;;;;;;6235568;22;20090;-93
2023/08/26 07:02:35;;;;;;;577.10;531.90;;;14.20;81.60;;;;;;6250499;22;20023;-94
2023/08/26 07:05:01;;;;;;;580.83;534.83;;;14.20;81.70;;;;;;6227553;22;20015;-94
2023/08/26 07:07:27;;;;;;;656.40;600.63;;;14.30;81.40;;;;;;6212004;22;20019;-92
2023/08/26 07:09:53;;;;;;;558.90;514.53;;;14.30;81.20;;;;;;6202648;22;20022;-92
2023/08/26 07:12:19;;;;;;;571.17;525.55;;;14.30;80.80;;;;;;6196496;22;20452;-94
2023/08/26 07:14:45;;;;;;;568.40;522.22;;;14.40;80.50;;;;;;6228643;22;20374;-93
2023/08/26 07:17:12;;;;;;;572.00;526.47;;;14.40;80.10;;;;;;6244285;22;20015;-94
2023/08/26 07:19:38;;;;;;;581.97;535.42;;;14.50;80.20;;;;;;6230657;22;20019;-94
2023/08/26 07:22:04;;;;;;;578.63;530.75;;;14.50;80.30;;;;;;6230082;22;20102;-94
2023/08/26 07:24:30;;;;;;;571.53;525.67;;;14.60;79.70;;;;;;6204398;22;20023;-93
2023/08/26 07:26:56;;;;;;;585.33;538.72;;;14.70;79.30;;;;;;6204642;22;20020;-94
2023/08/26 07:29:21;;;;;;;558.65;513.72;;;14.70;79.50;;;;;;6229068;22;20016;-94
2023/08/26 07:31:47;;;;;;;615.45;565.30;;;14.80;79.60;;;;;;6205546;22;20022;-94
2023/08/26 07:34:13;;;;;;;632.33;578.40;;;14.80;79.80;;;;;;6235361;22;20335;-94
2023/08/26 07:37:02;;;;;;;630.03;577.25;;;15.00;79.70;;;;;;6223143;22;20015;-94
2023/08/26 07:43:19;;;;;;;683.60;621.88;;;15.20;80.30;;;;;;6311574;22;20042;-94
2023/08/26 07:46:22;;;;;;;708.17;642.40;;;15.30;80.20;;;;;;6230040;22;20027;-94
2023/08/26 07:48:53;;;;;;;634.58;581.13;;;15.40;80.30;;;;;;6226082;22;20390;-94
2023/08/26 07:52:01;;;;;;;651.65;595.08;;;15.50;80.40;;;;;;6205679;22;20522;-95
2023/08/26 07:58:41;;;;;;;637.67;580.00;;;15.60;80.90;;;;;;6308851;22;20389;-93
2023/08/26 08:01:07;;;;;;;739.80;669.63;;;15.70;81.10;;;;;;6255192;22;20394;-92
2023/08/26 08:03:36;;;;;;;702.60;640.65;;;15.80;81.20;;;;;;6291496;22;20023;-95
2023/08/26 08:06:10;;;;;;;669.83;611.83;;;15.80;81.00;;;;;;6233598;22;20016;-95
2023/08/26 08:08:48;;;;;;;720.88;655.65;;;16.00;81.20;;;;;;6257175;22;20090;-94
2023/08/26 08:11:14;;;;;;;704.78;643.30;;;16.00;80.80;;;;;;6207287;22;20387;-94
2023/08/26 08:13:42;;;;;;;702.15;640.53;;;16.00;80.80;;;;;;6255301;22;20066;-93
2023/08/26 08:19:48;;;;;;;643.95;589.03;;;16.10;80.60;;;;;;6272092;22;20470;-93
2023/08/26 08:26:21;;;;;;;665.90;605.15;;;16.20;80.40;;;;;;6310324;22;20038;-93
2023/08/26 08:28:47;;;;;;;692.05;628.85;;;16.40;80.00;;;;;;6256692;22;20019;-94
2023/08/26 08:31:13;;;;;;;730.85;665.50;;;16.40;79.90;;;;;;6206085;22;20022;-94
2023/08/26 08:33:40;;;;;;;727.08;661.35;;;16.40;79.50;;;;;;6252553;22;20471;-95
2023/08/26 08:36:07;;;;;;;720.55;654.92;;;16.50;79.50;;;;;;6206095;22;20027;-96
2023/08/26 08:38:34;;;;;;;721.60;657.08;;;16.60;79.10;;;;;;6253932;22;20428;-95
2023/08/26 08:44:48;;;;;;;652.40;594.20;;;16.80;78.70;;;;;;6206440;22;20020;-95
2023/08/26 08:47:15;;;;;;;674.67;613.92;;;16.90;78.50;;;;;;6165805;23;20477;-94
2023/08/26 08:50:04;;;;;;;714.38;651.85;;;16.90;78.50;;;;;;6165014;23;20020;-93
2023/08/26 08:52:32;;;;;;;744.83;676.92;;;17.00;78.40;;;;;;6164072;23;20043;-94
2023/08/26 08:55:05;;;;;;;747.33;679.25;;;17.00;78.30;;;;;;6166923;23;20017;-96
2023/08/26 08:57:55;;;;;;;751.58;680.30;;;17.20;78.50;;;;;;6260008;22;20015;-94
2023/08/26 09:00:24;;;;;;;737.28;670.67;;;17.20;78.10;;;;;;6256333;22;20019;-94
2023/08/26 09:02:53;;;;;;;752.58;683.20;;;17.30;77.90;;;;;;6253991;22;20016;-94
2023/08/26 09:05:19;;;;;;;747.55;678.95;;;17.40;78.10;;;;;;6256090;22;20015;-94
2023/08/26 09:07:48;;;;;;;812.70;733.72;;;17.50;77.90;;;;;;6197742;22;20351;-93
2023/08/26 09:10:15;;;;;;;760.63;689.42;;;17.50;77.60;;;;;;6282392;22;20026;-96
2023/08/26 09:12:41;;;;;;;748.95;681.15;;;17.50;77.80;;;;;;6229379;22;20103;-94
2023/08/26 09:15:07;;;;;;;746.03;675.88;;;17.60;77.60;;;;;;6232271;22;20043;-94
2023/08/26 09:17:43;;;;;;;733.72;666.50;;;17.80;77.60;;;;;;6223841;22;20068;-96
2023/08/26 09:20:10;;;;;;;749.00;680.67;;;17.90;77.10;;;;;;6232367;22;20020;-96
2023/08/26 09:22:36;;;;;;;841.35;757.92;;;17.90;76.50;;;;;;6253626;22;20031;-94
2023/08/26 09:25:03;;;;;;;702.15;641.75;;;17.80;76.50;;;;;;6204585;22;20076;-92
2023/08/26 09:27:34;;;;;;;786.95;713.28;;;17.80;76.70;;;;;;6231966;22;20055;-90
2023/08/26 09:32:49;;;;;;;754.33;683.65;;;17.60;76.80;;;;;;6269764;22;20035;-86
2023/08/26 09:35:17;;;;;;;807.67;731.72;;;17.50;77.10;;;;;;6199636;22;20352;-86
2023/08/26 09:37:45;;;;;;;876.47;789.58;;;17.40;77.50;;;;;;6217027;22;20027;-85
2023/08/26 09:40:18;;;;;;;822.67;741.55;;;17.20;78.20;;;;;;6242800;22;20020;-85
2023/08/26 09:42:44;;;;;;;879.72;792.13;;;17.10;79.00;;;;;;6241696;22;20085;-84
2023/08/26 09:45:13;;;;;;;804.95;727.42;;;16.90;79.40;;;;;;6239935;22;20055;-83
2023/08/26 09:47:40;;;;;;;860.28;776.67;;;16.80;80.00;;;;;;6218029;22;20062;-82
2023/08/26 09:50:07;;;;;;;828.50;746.15;;;16.60;80.20;;;;;;6269201;22;20023;-83
2023/08/26 09:52:46;;;;;;;799.08;721.72;;;16.50;80.40;;;;;;6242514;22;20351;-82
2023/08/26 09:55:12;;;;;;;820.08;739.83;;;16.40;80.40;;;;;;6242255;22;20016;-82
2023/08/26 09:57:39;;;;;;;776.47;702.53;;;16.40;80.70;;;;;;6243164;22;20353;-83
2023/08/26 10:00:12;;;;;;;767.72;695.75;;;16.40;80.80;;;;;;6270245;22;20095;-81
2023/08/26 10:02:47;;;;;;;753.28;683.92;;;16.40;81.20;;;;;;6243375;22;20400;-81
2023/08/26 10:05:16;;;;;;;787.90;715.55;;;16.20;81.70;;;;;;6243504;22;20020;-83
2023/08/26 10:07:46;;;;;;;775.10;703.78;;;16.00;81.80;;;;;;6216217;22;20102;-84
2023/08/26 10:10:24;;;;;;;691.50;631.45;;;15.70;80.30;;;;;;6239716;22;20119;-84
2023/08/26 10:12:54;;;;;;;663.88;605.03;;;15.40;80.10;;;;;;6240390;22;20351;-83
2023/08/26 10:15:23;;;;;;;669.03;612.15;;;15.00;80.30;;;;;;6242874;22;20293;-83
2023/08/26 10:17:52;;;;;;;659.13;598.53;;;14.80;80.50;;;;;;6243194;22;20023;-83
2023/08/26 10:20:19;;;;;;;646.15;588.53;;;14.50;80.60;;;;;;6269541;22;20083;-83
2023/08/26 10:22:45;;;;;;;645.53;590.33;;;14.40;80.60;;;;;;6242846;22;20077;-83
2023/08/26 10:25:13;;;;;;;597.67;549.05;;;14.20;80.70;;;;;;6242865;22;20020;-83
2023/08/26 10:27:39;;;;;;;626.90;575.38;;;14.10;81.30;;;;;;6218867;22;20390;-83
2023/08/26 10:30:06;;;;;;;595.90;547.13;;;14.00;81.50;;;;;;6241083;22;20322;-85
2023/08/26 10:32:43;;;;;;;686.15;625.08;;;14.00;81.90;;;;;;6241590;22;20027;-83
2023/08/26 10:35:13;;;;;;;580.45;534.50;;;14.00;82.20;;;;;;6270254;22;20448;-82
2023/08/26 10:37:42;;;;;;;672.78;613.78;;;14.00;82.60;;;;;;6270815;22;20027;-83
2023/08/26 10:40:12;;;;;;;616.70;566.17;;;14.00;82.80;;;;;;6270223;22;20016;-84
2023/08/26 10:42:39;;;;;;;587.00;539.05;;;14.00;83.00;;;;;;6270463;22;20340;-82
2023/08/26 10:45:14;;;;;;;602.63;554.15;;;14.10;83.20;;;;;;6243433;22;20070;-82
2023/08/26 10:47:51;;;;;;;573.35;528.33;;;14.20;83.40;;;;;;6269489;22;20436;-83
2023/08/26 10:50:18;;;;;;;562.70;517.58;;;14.30;83.60;;;;;;6242713;22;20020;-82
2023/08/26 10:52:45;;;;;;;671.47;611.63;;;14.40;83.60;;;;;;6269757;22;20030;-82
2023/08/26 10:55:26;;;;;;;697.03;632.30;;;14.50;83.90;;;;;;6243540;22;20071;-82
2023/08/26 10:58:01;;;;;;;;;;;14.80;84.60;;;;;;6271621;22;20030;-82
2023/08/26 11:00:27;;;;;;;562.95;516.17;;;15.00;85.20;;;;;;6242508;22;19915;-82
2023/08/26 11:02:54;;;;;;;724.58;653.53;;;15.20;84.80;;;;;;6242545;22;20015;-83
2023/08/26 11:05:21;;;;;;;682.03;622.78;;;15.30;84.60;;;;;;6243145;22;20024;-82
2023/08/26 11:07:47;;;;;;;739.08;671.95;;;15.50;83.60;;;;;;6270348;22;20055;-82
2023/08/26 11:10:39;;;;;;;709.47;647.17;;;15.60;83.80;;;;;;6269357;22;20073;-82
2023/08/26 11:13:05;;;;;;;;;;;15.80;82.40;;;;;;6217446;22;20012;-83
2023/08/26 11:15:38;;;;;;;640.53;585.97;;;15.80;82.50;;;;;;6242996;22;20289;-83
2023/08/26 11:18:05;;;;;;;610.83;560.20;;;16.00;82.30;;;;;;6270253;22;20026;-83
2023/08/26 11:20:31;;;;;;;655.17;598.90;;;16.00;82.60;;;;;;6242181;22;20042;-86
2023/08/26 11:22:57;;;;;;;690.15;629.83;;;16.10;83.20;;;;;;6269923;22;20037;-83
2023/08/26 11:25:23;;;;;;;770.17;699.50;;;16.40;82.60;;;;;;6268997;22;20047;-83
2023/08/26 11:27:50;;;;;;;805.35;730.47;;;16.40;81.80;;;;;;6241895;22;20019;-83
2023/08/26 11:30:16;;;;;;;728.63;662.60;;;16.60;81.50;;;;;;6212896;22;20024;-83
2023/08/26 11:32:42;;;;;;;740.85;671.42;;;16.70;79.50;;;;;;6238444;22;20032;-85
2023/08/26 11:35:10;;;;;;;811.28;736.50;;;16.70;79.20;;;;;;6238604;22;20094;-83
2023/08/26 11:37:43;;;;;;;729.38;664.60;;;16.80;78.60;;;;;;6265787;22;20408;-85
2023/08/26 11:40:10;;;;;;;745.22;677.40;;;16.80;78.30;;;;;;6242259;22;20023;-82
2023/08/26 11:42:36;;;;;;;721.15;657.05;;;16.80;78.70;;;;;;6242280;22;20069;-84
2023/08/26 11:45:07;;;;;;;825.15;746.45;;;16.90;78.10;;;;;;6217415;22;20023;-83
2023/08/26 11:47:33;;;;;;;749.13;680.05;;;17.00;78.20;;;;;;6270168;22;20031;-83
2023/08/26 11:49:59;;;;;;;788.55;715.95;;;17.10;78.70;;;;;;6241842;22;20020;-86
2023/08/26 11:52:32;;;;;;;817.38;740.75;;;17.20;78.50;;;;;;6270177;22;20008;-85
2023/08/26 11:54:58;;;;;;;795.58;721.78;;;17.30;78.70;;;;;;6241938;22;20078;-81
2023/08/26 11:57:24;;;;;;;831.55;752.30;;;17.50;78.60;;;;;;6269771;22;20073;-80
2023/08/26 11:59:50;;;;;;;856.90;772.83;;;17.60;78.80;;;;;;6240919;22;20020;-81
2023/08/26 12:02:21;;;;;;;855.60;774.42;;;17.60;78.30;;;;;;6241543;22;20008;-83
2023/08/26 12:04:54;;;;;;;836.90;758.22;;;17.60;78.10;;;;;;6192348;22;20099;-82
2023/08/26 12:07:20;;;;;;;821.17;744.83;;;17.60;76.90;;;;;;6244188;22;20016;-83
2023/08/26 12:09:46;;;;;;;758.90;689.08;;;17.60;76.10;;;;;;6271109;22;20020;-83
2023/08/26 12:12:11;;;;;;;803.08;729.83;;;17.60;75.20;;;;;;6270708;22;20035;-87
2023/08/26 12:14:37;;;;;;;786.05;714.05;;;17.60;75.10;;;;;;6241428;22;20317;-84
2023/08/26 12:17:04;;;;;;;846.53;765.28;;;17.50;75.40;;;;;;6269211;22;20481;-84
2023/08/26 12:19:34;;;;;;;768.80;701.60;;;17.50;74.50;;;;;;6243607;22;20517;-79
2023/08/26 12:22:00;;;;;;;802.20;729.58;;;17.50;73.80;;;;;;6270995;22;20012;-79
2023/08/26 12:24:26;;;;;;;687.63;624.10;;;17.50;73.60;;;;;;6270614;22;20016;-80
2023/08/26 12:26:53;;;;;;;833.22;755.35;;;17.50;73.60;;;;;;6192709;22;20054;-79
2023/08/26 12:29:18;;;;;;;782.35;707.50;;;17.50;73.30;;;;;;6241886;22;20069;-82
2023/08/26 12:31:48;;;;;;;784.83;712.42;;;17.50;73.30;;;;;;6241437;22;20297;-85
2023/08/26 12:34:14;;;;;;;757.97;688.22;;;17.60;73.50;;;;;;6241429;22;20028;-81
2023/08/26 12:36:39;;;;;;;782.88;714.05;;;17.60;73.20;;;;;;6262487;22;20023;-82
2023/08/26 12:39:05;;;;;;;682.03;621.67;;;17.70;72.70;;;;;;6268083;22;20320;-80
2023/08/26 12:43:19;;;;;;;782.40;710.30;;;18.00;71.80;;;;;;5083779;27;20445;-67
2023/08/26 12:45:45;;;;;;;765.50;695.55;;;17.80;73.20;;;;;;5084908;28;20040;-66
2023/08/26 12:48:11;;;;;;;748.75;680.08;;;17.90;73.20;;;;;;5082193;28;20036;-68
2023/08/26 12:50:37;;;;;;;793.70;722.15;;;18.00;73.10;;;;;;5050533;28;20437;-66
2023/08/26 12:53:03;;;;;;;845.53;762.92;;;18.10;73.10;;;;;;5042557;28;20044;-65
2023/08/26 12:55:29;;;;;;;867.40;778.17;;;18.20;72.90;;;;;;5040499;28;20056;-67
2023/08/26 12:57:55;;;;;;;877.70;789.97;;;18.30;73.20;;;;;;5045246;28;20037;-68
2023/08/26 13:00:20;;;;;;;780.17;710.05;;;18.30;72.70;;;;;;5042271;28;20292;-68
2023/08/26 13:02:48;;;;;;;881.85;794.17;;;18.30;72.50;;;;;;5040537;28;20098;-67
2023/08/26 13:05:13;;;;;;;841.65;757.60;;;18.30;71.90;;;;;;5042757;28;20123;-67
2023/08/26 13:07:39;;;;;;;855.70;771.75;;;18.30;70.80;;;;;;5041176;28;20042;-69
2023/08/26 13:10:06;;;;;;;892.42;799.10;;;18.20;70.80;;;;;;5042461;28;20451;-68
2023/08/26 13:12:32;;;;;;;810.13;735.85;;;18.10;70.50;;;;;;5041692;28;20041;-68
2023/08/26 13:14:58;;;;;;;825.60;748.95;;;18.00;70.80;;;;;;5036515;28;20045;-68
2023/08/26 13:17:24;;;;;;;889.70;794.78;;;18.00;70.90;;;;;;5029596;28;20041;-69
2023/08/26 13:30:35;;;;;;;798.83;725.60;;;17.50;73.90;;;;;;5008038;28;20089;-67
2023/08/26 13:33:01;;;;;;;786.75;715.17;;;17.50;74.80;;;;;;5006374;23;20093;-65
2023/08/26 13:35:27;;;;;;;785.42;712.72;;;17.50;74.70;;;;;;4987312;28;20058;-66
2023/08/26 13:40:46;;;;;;;808.75;733.70;;;17.60;74.50;;;;;;5073677;23;20059;-67
2023/08/26 13:43:49;;;;;;;743.95;674.67;;;17.80;75.10;;;;;;5029100;28;20053;-67
2023/08/26 13:55:08;;;;;;;806.53;732.85;;;18.20;73.30;;;;;;3748822;23;20064;-77
2023/08/26 13:57:35;;;;;;;816.67;740.13;;;18.40;73.20;;;;;;5032636;28;20453;-77
2023/08/26 14:00:01;;;;;;;800.33;726.58;;;18.50;72.80;;;;;;5033399;28;20045;-75
2023/08/26 14:02:28;;;;;;;869.55;781.17;;;18.60;72.50;;;;;;5033220;28;20119;-77
2023/08/26 14:04:55;;;;;;;787.25;713.00;;;18.60;70.80;;;;;;5028687;28;20091;-77
2023/08/26 14:07:21;;;;;;;1052.60;864.08;;;18.60;71.10;;;;;;5023717;28;20396;-77
2023/08/26 14:09:47;;;;;;;876.78;789.42;;;18.80;71.30;;;;;;5014528;28;20050;-73
2023/08/26 14:12:12;;;;;;;856.72;775.58;;;18.80;70.00;;;;;;5014584;28;20049;-72
2023/08/26 14:14:38;;;;;;;939.53;835.33;;;18.80;70.30;;;;;;5014209;28;20052;-77
2023/08/26 14:17:04;;;;;;;916.33;815.50;;;18.70;70.50;;;;;;5029693;28;20389;-75
2023/08/26 14:19:30;;;;;;;831.33;751.08;;;18.70;70.40;;;;;;5014443;28;20064;-79
2023/08/26 14:21:55;;;;;;;777.78;700.67;;;18.60;70.10;;;;;;5013134;28;20050;-77
2023/08/26 14:24:21;;;;;;;866.50;778.85;;;18.60;69.60;;;;;;5030027;28;20053;-78
2023/08/26 14:26:47;;;;;;;801.65;726.25;;;18.50;69.90;;;;;;5014443;28;20049;-78
2023/08/26 14:29:13;;;;;;;839.47;763.28;;;18.50;70.40;;;;;;5014508;28;20108;-78
2023/08/26 14:31:38;;;;;;;844.50;763.33;;;18.40;71.20;;;;;;5012866;28;20411;-73
2023/08/26 14:34:04;;;;;;;1004.15;862.10;;;18.50;71.50;;;;;;5033412;28;20045;-77
2023/08/26 14:36:30;;;;;;;810.72;738.10;;;18.50;71.70;;;;;;5014219;28;20056;-78
2023/08/26 14:38:55;;;;;;;1017.83;866.92;;;18.50;72.00;;;;;;5031571;28;20129;-76
2023/08/26 14:41:21;;;;;;;1035.53;887.00;;;18.50;71.90;;;;;;5028242;28;20084;-74
2023/08/26 14:43:48;;;;;;;795.47;724.83;;;18.60;71.90;;;;;;5030211;28;20052;-74
2023/08/26 14:46:14;;;;;;;761.58;690.83;;;18.60;72.00;;;;;;5030405;28;20045;-78
2023/08/26 14:48:41;;;;;;;841.17;758.95;;;18.80;72.10;;;;;;5032431;28;20381;-78
2023/08/26 14:51:07;;;;;;;825.30;750.05;;;18.90;71.50;;;;;;5033013;28;20099;-78
2023/08/26 14:53:33;;;;;;;1070.75;892.00;;;19.00;71.40;;;;;;5033710;28;20473;-77
2023/08/26 14:55:59;;;;;;;841.42;757.80;;;19.00;71.00;;;;;;5031857;28;20141;-77
2023/08/26 14:58:24;;;;;;;891.17;798.72;;;19.00;70.50;;;;;;5031375;28;20061;-77
2023/08/26 15:00:54;;;;;;;803.78;729.13;;;19.00;71.10;;;;;;5033260;28;20483;-78
2023/08/26 15:03:20;;;;;;;891.25;801.92;;;19.10;70.70;;;;;;5033532;28;20247;-77
2023/08/26 15:06:02;;;;;;;982.60;852.08;;;19.10;70.90;;;;;;5032858;28;20233;-78
2023/08/26 15:08:28;;;;;;;868.30;782.58;;;19.10;70.10;;;;;;5033231;28;20472;-77
2023/08/26 15:10:53;;;;;;;838.83;754.22;;;19.00;70.50;;;;;;5033528;28;20052;-77
2023/08/26 15:13:22;;;;;;;823.42;747.17;;;18.90;70.50;;;;;;5033534;28;20056;-78
2023/08/26 15:15:48;;;;;;;822.78;743.00;;;18.70;70.40;;;;;;5033742;28;20053;-78
2023/08/26 15:18:16;;;;;;;834.28;756.15;;;18.70;70.80;;;;;;5032247;28;20049;-78
2023/08/26 15:20:47;;;;;;;939.78;825.42;;;18.80;70.40;;;;;;5032856;28;20045;-78
2023/08/26 15:38:56;;;;;;;845.47;762.60;;;19.50;67.20;;;;;;4711750;23;20063;-65
2023/08/26 15:41:22;;;;;;;924.97;825.83;;;19.50;68.00;;;;;;4952446;29;20062;-65
2023/08/26 15:43:49;;;;;;;886.15;794.58;;;19.50;68.00;;;;;;4953402;29;20054;-65
2023/08/26 15:46:14;;;;;;;858.42;771.30;;;19.50;68.20;;;;;;4935120;28;20051;-64
2023/08/26 15:48:40;;;;;;;845.38;763.30;;;19.50;68.30;;;;;;4954584;28;20375;-65
2023/08/26 15:51:06;;;;;;;845.90;766.15;;;19.50;68.20;;;;;;4953880;29;20497;-65
2023/08/26 15:53:32;;;;;;;895.65;804.30;;;19.50;68.20;;;;;;4953075;29;20050;-66
2023/08/26 15:55:58;;;;;;;1067.20;883.38;;;19.50;67.70;;;;;;4953107;29;20047;-65
2023/08/26 15:58:26;;;;;;;916.08;819.90;;;19.30;68.20;;;;;;4953988;29;20047;-65
2023/08/26 16:00:55;;;;;;;805.03;725.63;;;19.00;68.50;;;;;;4954079;29;20421;-65
2023/08/26 16:03:21;;;;;;;863.63;776.67;;;18.90;68.90;;;;;;4952914;28;20047;-65
2023/08/26 16:05:47;;;;;;;803.42;727.05;;;18.70;69.30;;;;;;4953352;29;20046;-65
2023/08/26 16:08:13;;;;;;;807.65;729.38;;;18.70;69.90;;;;;;4952556;29;20137;-65
2023/08/26 16:10:39;;;;;;;835.30;751.83;;;18.70;69.90;;;;;;4952751;28;20482;-65
2023/08/26 16:13:05;;;;;;;804.42;727.30;;;18.70;70.20;;;;;;4953553;28;20540;-71
2023/08/26 16:15:31;;;;;;;833.30;753.53;;;18.80;70.20;;;;;;4953097;28;20126;-65
2023/08/26 16:17:57;;;;;;;818.60;744.85;;;18.90;70.30;;;;;;4953206;29;20101;-65
2023/08/26 16:20:23;;;;;;;797.25;724.72;;;19.00;70.20;;;;;;4936394;29;20493;-65
2023/08/26 16:22:49;;;;;;;830.60;754.00;;;19.00;70.10;;;;;;4953200;29;20122;-65
2023/08/26 16:25:15;;;;;;;853.65;768.85;;;18.90;70.00;;;;;;4953324;29;20047;-65
2023/08/26 16:27:41;;;;;;;859.50;772.63;;;18.80;70.40;;;;;;4953614;29;20079;-65
2023/08/26 16:30:07;;;;;;;852.28;768.65;;;18.80;70.60;;;;;;4953135;29;20141;-68
2023/08/26 16:32:33;;;;;;;859.63;773.30;;;18.80;70.70;;;;;;4952962;29;20469;-65
2023/08/26 16:35:00;;;;;;;859.17;775.70;;;18.90;70.80;;;;;;4936921;29;20047;-65
2023/08/26 16:37:26;;;;;;;832.22;755.55;;;18.90;70.90;;;;;;4951256;28;20050;-69
2023/08/26 16:39:52;;;;;;;811.65;738.55;;;18.90;71.10;;;;;;4941937;28;20397;-67